createdAt,value
2018-09-18T00:02:04.224Z,5.93
2018-09-18T00:04:34.554Z,6.90
2018-09-18T00:07:05.191Z,6.30
2018-09-18T00:09:35.626Z,6.67
2018-09-18T00:12:06.228Z,6.97
2018-09-18T00:14:37.064Z,5.40
2018-09-18T00:17:07.738Z,6.80
2018-09-18T00:19:38.244Z,6.80
2018-09-18T00:22:08.830Z,7.10
2018-09-18T00:24:40.396Z,6.33
2018-09-18T00:27:11.114Z,6.70
2018-09-18T00:29:41.783Z,6.50
2018-09-18T00:32:12.424Z,6.63
2018-09-18T00:34:42.986Z,7.53
2018-09-18T00:37:13.603Z,6.07
2018-09-18T00:39:44.087Z,6.50
2018-09-18T00:42:15.030Z,5.83
2018-09-18T00:44:45.649Z,6.23
2018-09-18T00:47:16.298Z,6.20
2018-09-18T00:49:47.283Z,6.20
2018-09-18T00:52:18.073Z,6.80
2018-09-18T00:54:49.383Z,5.80
2018-09-18T00:57:19.862Z,6.53
2018-09-18T00:59:50.318Z,5.57
2018-09-18T01:02:20.665Z,7.13
2018-09-18T01:04:52.496Z,6.63
2018-09-18T01:07:23.461Z,6.00
2018-09-18T01:09:53.944Z,6.90
2018-09-18T01:12:24.380Z,6.77
2018-09-18T01:14:56.352Z,6.10
2018-09-18T01:17:27.076Z,6.20
2018-09-18T01:19:58.067Z,5.27
2018-09-18T01:22:28.559Z,6.27
2018-09-18T01:24:59.059Z,6.53
2018-09-18T01:27:29.578Z,6.43
2018-09-18T01:30:00.226Z,6.70
2018-09-18T01:32:30.629Z,5.23
2018-09-18T01:35:02.117Z,6.40
2018-09-18T01:37:32.704Z,7.70
2018-09-18T01:40:03.241Z,6.87
2018-09-18T01:42:34.031Z,5.67
2018-09-18T01:45:05.557Z,6.50
2018-09-18T01:47:35.874Z,6.33
2018-09-18T01:50:06.643Z,6.50
2018-09-18T01:52:37.348Z,6.43
2018-09-18T01:55:07.810Z,6.83
2018-09-18T01:57:38.392Z,6.70
2018-09-18T02:00:08.896Z,7.17
2018-09-18T02:02:39.738Z,7.70
2018-09-18T02:05:10.271Z,7.03
2018-09-18T02:07:40.939Z,6.33
2018-09-18T02:10:11.826Z,6.37
2018-09-18T02:12:42.196Z,6.30
2018-09-18T02:15:13.023Z,7.03
2018-09-18T02:17:43.767Z,7.00
2018-09-18T02:20:13.519Z,6.90
2018-09-18T02:22:43.392Z,6.83
2018-09-18T02:25:13.202Z,6.20
2018-09-18T02:27:43.206Z,6.70
2018-09-18T02:30:13.718Z,5.90
2018-09-18T02:32:44.279Z,6.97
2018-09-18T02:35:16.024Z,6.80
2018-09-18T02:37:46.606Z,6.90
2018-09-18T02:40:17.382Z,6.30
2018-09-18T02:42:48.312Z,7.00
2018-09-18T02:45:19.671Z,6.73
2018-09-18T02:47:49.784Z,6.83
2018-09-18T02:50:20.523Z,7.13
2018-09-18T02:52:50.997Z,6.87
2018-09-18T02:55:21.941Z,6.80
2018-09-18T02:57:52.726Z,6.93
2018-09-18T03:00:23.264Z,5.97
2018-09-18T03:02:54.002Z,7.30
2018-09-18T03:05:25.739Z,7.03
2018-09-18T03:07:56.034Z,6.40
2018-09-18T03:10:26.139Z,6.90
2018-09-18T03:12:56.398Z,6.53
2018-09-18T03:15:27.412Z,7.23
2018-09-18T03:17:57.923Z,7.80
2018-09-18T03:20:28.189Z,7.50
2018-09-18T03:22:58.681Z,7.50
2018-09-18T03:25:30.461Z,7.50
2018-09-18T03:28:01.469Z,7.50
2018-09-18T03:30:32.456Z,7.63
2018-09-18T03:33:03.434Z,7.37
2018-09-18T03:35:35.162Z,7.07
2018-09-18T03:38:05.799Z,7.50
2018-09-18T03:40:36.393Z,7.17
2018-09-18T03:43:06.693Z,8.37
2018-09-18T03:45:37.042Z,7.87
2018-09-18T03:48:06.912Z,7.90
2018-09-18T03:50:36.598Z,8.67
2018-09-18T03:53:06.298Z,7.13
2018-09-18T03:55:36.142Z,7.80
2018-09-18T03:58:05.908Z,7.23
2018-09-18T04:00:35.693Z,8.27
2018-09-18T04:03:05.483Z,7.97
2018-09-18T04:05:35.241Z,7.97
2018-09-18T04:08:05.049Z,7.43
2018-09-18T04:10:34.820Z,7.77
2018-09-18T04:13:04.579Z,9.33
2018-09-18T04:15:34.316Z,9.43
2018-09-18T04:18:04.263Z,7.93
2018-09-18T04:20:34.112Z,9.00
2018-09-18T04:23:03.879Z,8.40
2018-09-18T04:25:33.550Z,9.13
2018-09-18T04:28:03.346Z,10.87
2018-09-18T04:30:33.217Z,8.60
2018-09-18T04:33:03.068Z,10.30
2018-09-18T04:35:33.261Z,9.10
2018-09-18T04:38:04.002Z,12.40
2018-09-18T04:40:34.452Z,10.83
2018-09-18T04:43:04.342Z,8.20
2018-09-18T04:45:34.432Z,10.70
2018-09-18T04:48:04.312Z,9.47
2018-09-18T04:50:34.166Z,9.53
2018-09-18T04:53:03.979Z,9.40
2018-09-18T04:55:33.794Z,10.43
2018-09-18T04:58:03.660Z,12.17
2018-09-18T05:00:33.417Z,9.80
2018-09-18T05:03:03.235Z,11.13
2018-09-18T05:05:33.059Z,9.20
2018-09-18T05:08:02.953Z,10.47
2018-09-18T05:10:32.785Z,10.97
2018-09-18T05:13:02.597Z,9.90
2018-09-18T05:15:32.564Z,9.50
2018-09-18T05:18:02.255Z,10.47
2018-09-18T05:20:32.029Z,11.03
2018-09-18T05:23:01.788Z,10.90
2018-09-18T05:25:31.368Z,14.07
2018-09-18T05:28:01.196Z,11.37
2018-09-18T05:30:30.969Z,12.87
2018-09-18T05:33:00.934Z,11.23
2018-09-18T05:35:30.791Z,13.60
2018-09-18T05:38:00.640Z,13.70
2018-09-18T05:40:30.470Z,11.80
2018-09-18T05:43:00.840Z,12.27
2018-09-18T05:45:31.551Z,11.30
2018-09-18T05:48:02.660Z,11.93
2018-09-18T05:50:33.071Z,13.13
2018-09-18T05:53:03.737Z,12.23
2018-09-18T05:55:34.727Z,12.13
2018-09-18T05:58:05.154Z,11.33
2018-09-18T06:00:35.727Z,12.40
2018-09-18T06:03:06.303Z,12.60
2018-09-18T06:05:37.320Z,14.70
2018-09-18T06:08:07.867Z,14.10
2018-09-18T06:10:37.773Z,14.53
2018-09-18T06:13:07.599Z,11.67
2018-09-18T06:15:37.954Z,13.50
2018-09-18T06:18:07.609Z,14.93
2018-09-18T06:20:37.542Z,13.80
2018-09-18T06:23:07.420Z,16.10
2018-09-18T06:25:37.265Z,15.70
2018-09-18T06:28:07.106Z,17.53
2018-09-18T06:30:36.866Z,13.70
2018-09-18T06:33:06.780Z,14.30
2018-09-18T06:35:36.600Z,14.93
2018-09-18T06:38:06.378Z,14.27
2018-09-18T06:40:36.272Z,13.67
2018-09-18T06:43:06.239Z,12.57
2018-09-18T06:45:36.232Z,12.43
2018-09-18T06:48:06.493Z,12.50
2018-09-18T06:50:36.463Z,13.37
2018-09-18T06:53:06.282Z,11.50
2018-09-18T06:55:36.959Z,12.07
2018-09-18T06:58:06.755Z,13.50
2018-09-18T07:00:36.547Z,12.53
2018-09-18T07:03:06.469Z,12.50
2018-09-18T07:05:36.285Z,13.90
2018-09-18T07:08:06.001Z,12.23
2018-09-18T07:10:35.720Z,12.63
2018-09-18T07:13:05.496Z,13.50
2018-09-18T07:15:35.371Z,11.67
2018-09-18T07:18:05.229Z,12.57
2018-09-18T07:20:35.051Z,13.23
2018-09-18T07:23:04.996Z,12.47
2018-09-18T07:25:34.786Z,11.80
2018-09-18T07:28:04.558Z,12.20
2018-09-18T07:30:34.259Z,11.37
2018-09-18T07:33:04.099Z,10.97
2018-09-18T07:35:34.097Z,9.83
2018-09-18T07:38:03.978Z,10.13
2018-09-18T07:40:33.791Z,12.43
2018-09-18T07:43:03.664Z,15.67
2018-09-18T07:45:33.474Z,14.50
2018-09-18T07:48:03.401Z,10.97
2018-09-18T07:50:33.429Z,12.00
2018-09-18T07:53:03.541Z,11.07
2018-09-18T07:55:33.339Z,11.50
2018-09-18T07:58:03.200Z,11.70
2018-09-18T08:00:33.024Z,10.90
2018-09-18T08:03:02.946Z,12.30
2018-09-18T08:05:32.747Z,11.63
2018-09-18T08:08:02.559Z,10.43
2018-09-18T08:10:32.382Z,10.20
2018-09-18T08:13:02.421Z,11.70
2018-09-18T08:15:32.132Z,12.03
2018-09-18T08:18:01.705Z,9.20
2018-09-18T08:20:31.519Z,9.40
2018-09-18T08:23:01.284Z,10.87
2018-09-18T08:25:31.182Z,10.30
2018-09-18T08:28:00.874Z,9.93
2018-09-18T08:30:30.563Z,11.47
2018-09-18T08:33:00.388Z,10.50
2018-09-18T08:35:30.235Z,10.80
2018-09-18T08:37:59.990Z,9.80
2018-09-18T08:40:29.730Z,10.33
2018-09-18T08:42:59.526Z,10.83
2018-09-18T08:45:29.386Z,11.50
2018-09-18T08:47:59.227Z,10.20
2018-09-18T08:50:29.039Z,11.33
2018-09-18T08:52:59.085Z,10.17
2018-09-18T08:55:28.996Z,10.90
2018-09-18T08:57:58.767Z,11.57
2018-09-18T09:00:28.612Z,10.27
2018-09-18T09:02:58.399Z,10.20
2018-09-18T09:05:28.356Z,12.23
2018-09-18T09:07:58.371Z,9.80
2018-09-18T09:10:28.138Z,9.90
2018-09-18T09:12:57.795Z,9.40
2018-09-18T09:15:27.484Z,9.37
2018-09-18T09:17:57.321Z,10.40
2018-09-18T09:20:27.052Z,9.40
2018-09-18T09:22:57.059Z,9.73
2018-09-18T09:25:26.750Z,10.10
2018-09-18T09:27:56.689Z,8.27
2018-09-18T09:30:26.590Z,7.70
2018-09-18T09:32:56.308Z,8.20
2018-09-18T09:35:25.968Z,8.33
2018-09-18T09:37:55.850Z,8.03
2018-09-18T09:40:25.629Z,7.90
2018-09-18T09:42:55.454Z,9.20
2018-09-18T09:45:25.227Z,8.57
2018-09-18T09:47:55.051Z,9.00
2018-09-18T09:50:24.746Z,8.80
2018-09-18T09:52:54.672Z,7.87
2018-09-18T09:55:24.799Z,8.13
2018-09-18T09:57:54.680Z,9.20
2018-09-18T10:00:29.435Z,8.57
2018-09-18T10:02:59.325Z,8.17
2018-09-18T10:05:30.218Z,7.30
2018-09-18T10:07:59.914Z,7.20
2018-09-18T10:10:29.858Z,8.27
2018-09-18T10:12:59.726Z,8.40
2018-09-18T10:15:30.237Z,8.30
2018-09-18T10:18:00.090Z,8.73
2018-09-18T10:20:29.766Z,8.13
2018-09-18T10:22:59.505Z,7.37
2018-09-18T10:25:29.300Z,9.00
2018-09-18T10:27:59.108Z,7.70
2018-09-18T10:30:28.838Z,8.20
2018-09-18T10:32:58.688Z,7.63
2018-09-18T10:35:28.292Z,6.90
2018-09-18T10:37:57.868Z,7.20
2018-09-18T10:40:27.782Z,7.63
2018-09-18T10:42:57.629Z,6.93
2018-09-18T10:45:27.578Z,7.10
2018-09-18T10:47:57.348Z,8.27
2018-09-18T10:50:27.262Z,6.87
2018-09-18T10:52:57.181Z,7.13
2018-09-18T10:55:27.647Z,7.97
2018-09-18T10:57:57.496Z,6.20
2018-09-18T11:00:27.220Z,6.30
2018-09-18T11:02:56.965Z,7.17
2018-09-18T11:05:26.727Z,6.80
2018-09-18T11:07:56.518Z,7.60
2018-09-18T11:10:26.308Z,6.93
2018-09-18T11:12:56.150Z,7.80
2018-09-18T11:15:26.090Z,6.73
2018-09-18T11:17:55.847Z,8.63
2018-09-18T11:20:25.672Z,6.93
2018-09-18T11:22:55.526Z,6.60
2018-09-18T11:25:25.294Z,7.83
2018-09-18T11:27:55.076Z,6.73
2018-09-18T11:30:24.786Z,7.10
2018-09-18T11:32:54.688Z,7.37
2018-09-18T11:35:24.557Z,7.40
2018-09-18T11:37:54.241Z,6.40
2018-09-18T11:40:24.167Z,8.20
2018-09-18T11:42:54.067Z,6.77
2018-09-18T11:45:23.959Z,6.87
2018-09-18T11:47:53.738Z,7.43
2018-09-18T11:50:23.640Z,7.63
2018-09-18T11:52:53.402Z,8.10
2018-09-18T11:55:23.304Z,6.67
2018-09-18T11:57:53.367Z,7.87
2018-09-18T12:00:23.212Z,6.60
2018-09-18T12:02:53.217Z,6.73
2018-09-18T12:05:23.563Z,6.80
2018-09-18T12:07:53.427Z,6.77
2018-09-18T12:10:23.407Z,6.80
2018-09-18T12:12:53.724Z,6.07
2018-09-18T12:15:24.804Z,6.50
2018-09-18T12:17:54.880Z,6.53
2018-09-18T12:20:24.746Z,6.43
2018-09-18T12:22:54.591Z,7.63
2018-09-18T12:25:24.681Z,6.50
2018-09-18T12:27:54.524Z,6.77
2018-09-18T12:30:24.373Z,6.90
2018-09-18T12:32:54.243Z,7.80
2018-09-18T12:35:24.003Z,6.83
2018-09-18T12:37:53.765Z,6.10
2018-09-18T12:40:23.535Z,7.67
2018-09-18T12:42:53.379Z,5.50
2018-09-18T12:45:23.404Z,6.67
2018-09-18T12:47:53.190Z,7.70
2018-09-18T12:50:23.239Z,7.17
2018-09-18T12:52:52.842Z,7.00
2018-09-18T12:55:22.688Z,6.70
2018-09-18T12:57:52.455Z,6.70
2018-09-18T13:00:22.379Z,7.07
2018-09-18T13:02:52.113Z,7.00
2018-09-18T13:05:21.853Z,7.10
2018-09-18T13:07:51.552Z,6.80
2018-09-18T13:10:21.328Z,6.40
2018-09-18T13:12:51.103Z,6.67
2018-09-18T13:15:20.839Z,6.50
2018-09-18T13:17:50.777Z,6.80
2018-09-18T13:20:20.503Z,6.63
2018-09-18T13:22:50.339Z,7.50
2018-09-18T13:25:19.955Z,7.07
2018-09-18T13:27:49.911Z,7.23
2018-09-18T13:30:20.241Z,7.23
2018-09-18T13:32:49.957Z,8.57
2018-09-18T13:35:19.885Z,7.27
2018-09-18T13:37:49.637Z,7.43
2018-09-18T13:40:19.309Z,7.10
2018-09-18T13:42:49.051Z,8.60
2018-09-18T13:45:19.059Z,7.77
2018-09-18T13:47:48.830Z,7.23
2018-09-18T13:50:18.686Z,7.10
2018-09-18T13:52:48.512Z,8.30
2018-09-18T13:55:18.219Z,8.27
2018-09-18T13:57:48.148Z,7.37
2018-09-18T14:00:17.859Z,7.57
2018-09-18T14:02:47.639Z,9.10
2018-09-18T14:05:17.340Z,8.30
2018-09-18T14:07:47.114Z,8.40
2018-09-18T14:10:17.309Z,8.80
2018-09-18T14:12:47.344Z,9.33
2018-09-18T14:15:17.372Z,8.80
2018-09-18T14:17:47.079Z,8.87
2018-09-18T14:20:16.892Z,9.03
2018-09-18T14:22:46.808Z,8.90
2018-09-18T14:25:16.675Z,9.07
2018-09-18T14:27:46.456Z,8.80
2018-09-18T14:30:16.299Z,8.00
2018-09-18T14:32:46.339Z,7.70
2018-09-18T14:35:16.013Z,7.40
2018-09-18T14:37:45.742Z,8.10
2018-09-18T14:40:15.622Z,8.10
2018-09-18T14:42:45.423Z,7.13
2018-09-18T14:45:15.340Z,7.90
2018-09-18T14:47:45.206Z,7.97
2018-09-18T14:50:15.035Z,6.40
2018-09-18T14:52:44.875Z,7.27
2018-09-18T14:55:14.668Z,6.90
2018-09-18T14:57:44.500Z,8.00
2018-09-18T15:00:14.204Z,6.97
2018-09-18T15:02:43.948Z,7.90
2018-09-18T15:05:13.605Z,8.33
2018-09-18T15:07:43.427Z,8.40
2018-09-18T15:10:13.346Z,7.77
2018-09-18T15:12:43.303Z,6.60
2018-09-18T15:15:13.188Z,8.13
2018-09-18T15:17:43.104Z,7.70
2018-09-18T15:20:12.827Z,11.40
2018-09-18T15:22:42.732Z,10.47
2018-09-18T15:25:12.673Z,14.03
2018-09-18T15:27:42.695Z,11.10
2018-09-18T15:30:12.507Z,18.80
2018-09-18T15:32:42.358Z,14.47
2018-09-18T15:35:12.446Z,10.23
2018-09-18T15:37:42.133Z,9.40
2018-09-18T15:40:11.943Z,9.27
2018-09-18T15:42:41.799Z,9.63
2018-09-18T15:45:11.683Z,14.23
2018-09-18T15:47:41.420Z,12.70
2018-09-18T15:50:11.145Z,9.90
2018-09-18T15:52:40.824Z,11.00
2018-09-18T15:55:10.551Z,7.97
2018-09-18T15:57:40.369Z,7.57
2018-09-18T16:05:00.176Z,6.93
2018-09-18T16:07:30.209Z,7.43
2018-09-18T16:10:00.091Z,8.50
2018-09-18T16:12:30.047Z,9.53
2018-09-18T16:14:59.925Z,8.60
2018-09-18T16:17:29.595Z,8.50
2018-09-18T16:19:59.499Z,9.07
2018-09-18T16:22:29.334Z,8.13
2018-09-18T16:24:59.172Z,7.07
2018-09-18T16:27:29.103Z,8.53
2018-09-18T16:29:58.973Z,8.03
2018-09-18T16:32:28.776Z,7.37
2018-09-18T16:34:58.602Z,8.53
2018-09-18T16:37:28.618Z,9.00
2018-09-18T16:39:58.476Z,6.60
2018-09-18T16:42:28.404Z,7.70
2018-09-18T16:44:58.263Z,5.43
2018-09-18T16:47:28.098Z,6.63
2018-09-18T16:49:57.903Z,6.60
2018-09-18T16:52:27.717Z,5.73
2018-09-18T16:54:57.820Z,7.40
2018-09-18T16:57:27.678Z,6.13
2018-09-18T16:59:57.493Z,7.03
2018-09-18T17:02:27.448Z,6.40
2018-09-18T17:04:57.544Z,6.43
2018-09-18T17:07:27.188Z,6.73
2018-09-18T17:09:56.854Z,5.90
2018-09-18T17:12:26.595Z,7.80
2018-09-18T17:14:56.327Z,5.97
2018-09-18T17:17:25.978Z,5.93
2018-09-18T17:19:55.679Z,6.50
2018-09-18T17:22:25.524Z,5.77
2018-09-18T17:24:55.370Z,7.00
2018-09-18T17:27:25.138Z,7.60
2018-09-18T17:29:55.035Z,6.80
2018-09-18T17:32:24.756Z,7.00
2018-09-18T17:34:54.513Z,6.67
2018-09-18T17:37:24.325Z,7.80
2018-09-18T17:39:54.434Z,5.80
2018-09-18T17:42:24.202Z,6.10
2018-09-18T17:44:54.036Z,5.67
2018-09-18T17:47:23.921Z,5.40
2018-09-18T17:49:53.749Z,6.27
2018-09-18T17:52:23.746Z,5.77
2018-09-18T17:54:53.650Z,7.20
2018-09-18T17:57:23.401Z,6.90
2018-09-18T17:59:53.101Z,7.07
2018-09-18T18:02:22.964Z,6.30
2018-09-18T18:04:52.761Z,7.20
2018-09-18T18:07:22.620Z,6.17
2018-09-18T18:09:52.400Z,6.23
2018-09-18T18:12:22.248Z,6.07
2018-09-18T18:14:52.019Z,7.10
2018-09-18T18:17:21.785Z,6.47
2018-09-18T18:19:51.571Z,6.47
2018-09-18T18:22:21.351Z,5.97
2018-09-18T18:24:51.275Z,6.53
2018-09-18T18:27:21.094Z,6.10
2018-09-18T18:29:50.865Z,6.20
2018-09-18T18:32:20.537Z,6.30
2018-09-18T18:34:50.326Z,6.87
2018-09-18T18:37:20.163Z,5.70
2018-09-18T18:39:50.033Z,5.73
2018-09-18T18:42:20.201Z,5.87
2018-09-18T18:44:50.156Z,6.30
2018-09-18T18:47:19.986Z,6.63
2018-09-18T18:49:49.743Z,5.43
2018-09-18T18:52:19.523Z,6.80
2018-09-18T18:54:49.202Z,6.07
2018-09-18T18:57:19.018Z,5.60
2018-09-18T18:59:48.766Z,5.83
2018-09-18T19:02:18.538Z,6.00
2018-09-18T19:04:48.326Z,6.37
2018-09-18T19:07:18.133Z,7.00
2018-09-18T19:09:47.942Z,6.73
2018-09-18T19:12:17.759Z,6.87
2018-09-18T19:14:47.598Z,6.90
2018-09-18T19:17:17.355Z,5.87
2018-09-18T19:19:47.215Z,6.27
2018-09-18T19:22:17.055Z,6.93
2018-09-18T19:24:47.060Z,6.37
2018-09-18T19:27:16.828Z,6.37
2018-09-18T19:29:46.550Z,6.93
2018-09-18T19:32:16.301Z,7.00
2018-09-18T19:34:46.131Z,7.00
2018-09-18T19:37:15.770Z,6.90
2018-09-18T19:39:45.686Z,8.50
2018-09-18T19:42:15.474Z,7.60
2018-09-18T19:44:45.588Z,6.93
2018-09-18T19:47:15.290Z,6.87
2018-09-18T19:49:45.025Z,9.00
2018-09-18T19:52:14.863Z,8.40
2018-09-18T19:54:44.491Z,8.60
2018-09-18T19:57:14.168Z,8.53
2018-09-18T19:59:44.053Z,8.27
2018-09-18T20:02:13.747Z,7.93
2018-09-18T20:04:43.465Z,7.33
2018-09-18T20:07:13.375Z,8.63
2018-09-18T20:09:43.102Z,9.97
2018-09-18T20:12:12.915Z,7.83
2018-09-18T20:14:42.741Z,7.90
2018-09-18T20:17:12.641Z,8.33
2018-09-18T20:19:42.471Z,7.47
2018-09-18T20:22:12.299Z,7.87
2018-09-18T20:24:41.998Z,8.20
2018-09-18T20:27:11.756Z,6.63
2018-09-18T20:29:41.622Z,7.43
2018-09-18T20:32:11.425Z,7.77
2018-09-18T20:34:41.116Z,7.57
2018-09-18T20:37:10.820Z,7.27
2018-09-18T20:39:40.543Z,7.13
2018-09-18T20:42:10.392Z,8.27
2018-09-18T20:44:40.203Z,7.53
2018-09-18T20:47:10.356Z,7.93
2018-09-18T20:49:40.102Z,7.40
2018-09-18T20:52:09.949Z,7.67
2018-09-18T20:54:39.851Z,8.23
2018-09-18T20:57:09.735Z,8.00
2018-09-18T20:59:39.483Z,8.07
2018-09-18T21:02:09.257Z,6.90
2018-09-18T21:04:39.068Z,6.80
2018-09-18T21:07:08.870Z,8.07
2018-09-18T21:09:38.724Z,6.93
2018-09-18T21:12:08.482Z,5.97
2018-09-18T21:14:38.202Z,8.30
2018-09-18T21:17:08.090Z,6.43
2018-09-18T21:19:37.971Z,6.20
2018-09-18T21:22:07.901Z,7.40
2018-09-18T21:24:37.637Z,7.53
2018-09-18T21:27:07.377Z,7.00
2018-09-18T21:29:37.273Z,7.60
2018-09-18T21:32:07.182Z,8.00
2018-09-18T21:34:37.070Z,8.30
2018-09-18T21:37:07.240Z,7.67
2018-09-18T21:39:36.988Z,6.57
2018-09-18T21:42:06.749Z,7.67
2018-09-18T21:44:36.506Z,7.83
2018-09-18T21:47:06.356Z,7.13
2018-09-18T21:49:36.767Z,7.37
2018-09-18T21:52:06.603Z,8.77
2018-09-18T21:54:36.352Z,9.30
2018-09-18T21:57:06.043Z,7.80
2018-09-18T21:59:35.732Z,7.13
2018-09-18T22:02:05.386Z,7.20
2018-09-18T22:04:35.130Z,7.07
2018-09-18T22:07:04.934Z,7.37
2018-09-18T22:09:34.742Z,6.67
2018-09-18T22:12:04.486Z,6.60
2018-09-18T22:14:34.239Z,7.50
2018-09-18T22:17:04.071Z,6.67
2018-09-18T22:19:33.840Z,6.10
2018-09-18T22:22:03.628Z,6.60
2018-09-18T22:24:33.383Z,7.53
2018-09-18T22:27:03.110Z,6.90
2018-09-18T22:29:32.847Z,7.30
2018-09-18T22:32:02.536Z,13.10
2018-09-18T22:34:32.292Z,21.70
2018-09-18T22:37:02.118Z,17.00
2018-09-18T22:39:32.046Z,12.53
2018-09-18T22:42:01.958Z,10.17
2018-09-18T22:44:31.798Z,9.77
2018-09-18T22:47:01.527Z,8.73
2018-09-18T22:49:31.366Z,8.53
2018-09-18T22:52:01.330Z,7.97
2018-09-18T22:54:31.223Z,7.07
2018-09-18T22:57:00.988Z,6.07
2018-09-18T22:59:30.839Z,7.20
2018-09-18T23:02:00.683Z,8.00
2018-09-18T23:04:30.485Z,7.70
2018-09-18T23:07:00.258Z,7.50
2018-09-18T23:09:30.067Z,6.73
2018-09-18T23:11:59.807Z,7.40
2018-09-18T23:14:29.966Z,7.90
2018-09-18T23:16:59.847Z,6.83
2018-09-18T23:19:29.755Z,7.90
2018-09-18T23:21:59.592Z,6.90
2018-09-18T23:24:29.522Z,7.20
2018-09-18T23:26:59.316Z,7.90
2018-09-18T23:29:29.068Z,6.47
2018-09-18T23:31:58.801Z,7.67
2018-09-18T23:34:28.612Z,7.83
2018-09-18T23:36:58.438Z,6.90
2018-09-18T23:39:28.259Z,6.60
2018-09-18T23:41:57.955Z,6.83
2018-09-18T23:44:28.138Z,7.50
2018-09-18T23:46:57.802Z,6.97
2018-09-18T23:49:27.652Z,7.23
2018-09-18T23:51:57.537Z,7.73
2018-09-18T23:54:27.623Z,6.57
2018-09-18T23:56:57.347Z,6.93
2018-09-18T23:59:27.066Z,6.40
